Impacts TAF Board INFO
FOR SITUATIONAL AWARENESS. NOT TO BE USED FOR FLIGHT PLANNING PURPOSES.
IDs:

KMEM - Memphis Intl, TN, US

Issued at 0259 UTC 20 Aug 2018
Updated at 0332 UTC 20 Aug 2018
Potential Impact None Slight Moderate High
Time<<21/04Z 21/05Z 21/06Z 21/07Z 21/08Z 21/09Z 21/10Z 21/11Z 21/12Z 21/13Z 21/14Z 21/15Z 21/16Z
Type PRVL PRVL
VIS >6 >6
CIG 120 120
Cover BKN BKN
FltCat VFR VFR
WX -- --
WDir 190 190
WSpd 7 7
WGst -- --

Raw TAF
KMEM 200259Z 2003/2106 20009KT P6SM VCSH FEW050 BKN150
  FM200800 19008KT P6SM VCTS SCT015 BKN030CB
  FM201200 20009KT P6SM VCSH BKN015
  FM201600 21012G18KT P6SM SCT035 BKN150
  FM202300 20011KT P6SM VCTS BKN040CB
  FM210300 19007KT P6SM SCT080 BKN120


METAR Board
Radar Display
Forecast Discussion

FOR SITUATIONAL AWARENESS. NOT TO BE USED FOR FLIGHT PLANNING PURPOSES.